FranceFixed distance
La Maxi Race du Lac d'Annecy
31 May – 1 Jun2025
Distance
100km
Finishers
1,052990 men62 women
Winning time
10:23:52h
Median pace
5.78km/h
Pace distribution
1,052 finishers · 4.82–9.62 km/h · mean 5.97
Every finisher ran the same 100 km course, so these paces are directly comparable.
Histogram of finisher pace. 1,052 finishers ranged from 4.82 to 9.62 kilometres per hour, with a mean of 5.97 and a median of 5.78. The busiest band is 5.5 to 6.0 kilometres per hour, with 334 finishers.
Results
Ranks 151–200 of 1,052
| Rank | Runner | Time | Pace | Cat. | Placing |
|---|---|---|---|---|---|
| 151 | 14:53:34h | 6.71 | M23 | 143rd M · 88th M23 | |
| 152 | Esprit Trail Vincennes | 14:53:49h | 6.71 | M40 | 144th M · 18th M40 |
| 153 | ARC Annecy | 14:55:06h | 6.70 | M23 | 145th M · 89th M23 |
| 154 | 14:55:25h | 6.70 | MU23 | 146th M · 3rd MU23 | |
| 155 | 14:56:14h | 6.70 | M40 | 147th M · 19th M40 | |
| 156 | 14:57:23h | 6.69 | M23 | 148th M · 90th M23 | |
| 157 | 46 Saint-Cere | 14:57:30h | 6.68 | M23 | 149th M · 91st M23 |
| 158 | 14:57:31h | 6.68 | M35 | 150th M · 28th M35 | |
| 159 | Avia | 14:58:08h | 6.68 | M23 | 151st M · 92nd M23 |
| 160 | 14:58:16h | 6.68 | M23 | 152nd M · 93rd M23 | |
| 161 | 14:58:36h | 6.68 | M35 | 153rd M · 29th M35 | |
| 162 | les Trailers des Aravis | 14:58:42h | 6.68 | M23 | 154th M · 94th M23 |
| 163 | 14:59:08h | 6.67 | M23 | 155th M · 95th M23 | |
| 164 | 14:59:25h | 6.67 | M23 | 156th M · 96th M23 | |
| 165 | Legendre Sport | 14:59:41h | 6.67 | M23 | 157th M · 97th M23 |
| 166 | 14:59:57h | 6.67 | M23 | 158th M · 98th M23 | |
| 167 | Team Outdoor Paris | 15:02:36h | 6.65 | W23 | 9th F · 7th W23 |
| 168 | Ampuis Sports Outdoor | 15:03:12h | 6.64 | M45 | 159th M · 7th M45 |
| 169 | Annecy Athlétisme | 15:03:49h | 6.64 | W35 | 10th F · 2nd W35 |
| 170 | 15:03:50h | 6.64 | M23 | 160th M · 99th M23 | |
| 171 | US Putanges Handball | 15:04:10h | 6.64 | M23 | 161st M · 100th M23 |
| 172 | Running Conseil Roanne | 15:04:20h | 6.63 | W23 | 11th F · 8th W23 |
| 173 | Trail Bike SUD | 15:04:48h | 6.63 | M23 | 162nd M · 101st M23 |
| 174 | 15:06:16h | 6.62 | M23 | 163rd M · 102nd M23 | |
| 175 | 15:06:25h | 6.62 | M23 | 164th M · 103rd M23 | |
| 176 | Team Maximum | 15:07:02h | 6.62 | M23 | 165th M · 104th M23 |
| 177 | 15:07:23h | 6.61 | M23 | 166th M · 105th M23 | |
| 178 | Beaune Athlétisme | 15:07:26h | 6.61 | M55 | 167th M · 1st M55 |
| 179 | 15:09:39h | 6.60 | MU23 | 168th M · 4th MU23 | |
| 180 | 15:10:04h | 6.59 | M23 | 169th M · 106th M23 | |
| 181 | 15:11:38h | 6.58 | M23 | 170th M · 107th M23 | |
| 182 | 15:11:42h | 6.58 | M35 | 171st M · 30th M35 | |
| 183 | 15:11:58h | 6.58 | M40 | 172nd M · 20th M40 | |
| 184 | Wolf Gamb Team | 15:12:08h | 6.58 | M23 | 173rd M · 108th M23 |
| 185 | 15:12:25h | 6.58 | M23 | 174th M · 109th M23 | |
| 186 | 15:12:55h | 6.57 | M45 | 175th M · 8th M45 | |
| 187 | Cadence Athletics | 15:13:13h | 6.57 | M40 | 176th M · 21st M40 |
| 188 | 15:14:05h | 6.56 | M23 | 177th M · 110th M23 | |
| 189 | 15:14:16h | 6.56 | M23 | 178th M · 111th M23 | |
| 190 | Run BOB Club | 15:15:41h | 6.55 | M35 | 179th M · 31st M35 |
| 191 | 15:15:58h | 6.55 | M35 | 180th M · 32nd M35 | |
| 192 | Av3S | 15:16:29h | 6.55 | M23 | 181st M · 112th M23 |
| 193 | 15:16:34h | 6.55 | M23 | 182nd M · 113th M23 | |
| 194 | Team Trail Paris | 15:16:47h | 6.54 | M35 | 183rd M · 33rd M35 |
| 195 | C.A. Malling | 15:17:17h | 6.54 | M35 | 184th M · 34th M35 |
| 196 | LE Grand-Bornand | 15:18:34h | 6.53 | M23 | 185th M · 114th M23 |
| 197 | AC Tassin / Fartleck | 15:19:19h | 6.53 | M23 | 186th M · 115th M23 |
| 198 | S/L EA Creil | 15:19:33h | 6.53 | M35 | 187th M · 35th M35 |
| 199 | ARC | 15:19:51h | 6.52 | M23 | 188th M · 116th M23 |
| 200 | 15:20:17h | 6.52 | M23 | 189th M · 117th M23 |
- 151143rd M · 88th M23Time14:53:34hPace6.71Cat.M23
- 152Esprit Trail Vincennes144th M · 18th M40Time14:53:49hPace6.71Cat.M40
- 153ARC Annecy145th M · 89th M23Time14:55:06hPace6.70Cat.M23
- 154146th M · 3rd MU23Time14:55:25hPace6.70Cat.MU23
- 155147th M · 19th M40Time14:56:14hPace6.70Cat.M40
- 156148th M · 90th M23Time14:57:23hPace6.69Cat.M23
- 15746 Saint-Cere149th M · 91st M23Time14:57:30hPace6.68Cat.M23
- 158150th M · 28th M35Time14:57:31hPace6.68Cat.M35
- 159Avia151st M · 92nd M23Time14:58:08hPace6.68Cat.M23
- 160152nd M · 93rd M23Time14:58:16hPace6.68Cat.M23
- 161153rd M · 29th M35Time14:58:36hPace6.68Cat.M35
- 162les Trailers des Aravis154th M · 94th M23Time14:58:42hPace6.68Cat.M23
- 163155th M · 95th M23Time14:59:08hPace6.67Cat.M23
- 164156th M · 96th M23Time14:59:25hPace6.67Cat.M23
- 165Legendre Sport157th M · 97th M23Time14:59:41hPace6.67Cat.M23
- 166158th M · 98th M23Time14:59:57hPace6.67Cat.M23
- 167Team Outdoor Paris9th F · 7th W23Time15:02:36hPace6.65Cat.W23
- 168Ampuis Sports Outdoor159th M · 7th M45Time15:03:12hPace6.64Cat.M45
- 169Annecy Athlétisme10th F · 2nd W35Time15:03:49hPace6.64Cat.W35
- 170160th M · 99th M23Time15:03:50hPace6.64Cat.M23
- 171US Putanges Handball161st M · 100th M23Time15:04:10hPace6.64Cat.M23
- 172Running Conseil Roanne11th F · 8th W23Time15:04:20hPace6.63Cat.W23
- 173Trail Bike SUD162nd M · 101st M23Time15:04:48hPace6.63Cat.M23
- 174163rd M · 102nd M23Time15:06:16hPace6.62Cat.M23
- 175164th M · 103rd M23Time15:06:25hPace6.62Cat.M23
- 176Team Maximum165th M · 104th M23Time15:07:02hPace6.62Cat.M23
- 177166th M · 105th M23Time15:07:23hPace6.61Cat.M23
- 178Beaune Athlétisme167th M · 1st M55Time15:07:26hPace6.61Cat.M55
- 179168th M · 4th MU23Time15:09:39hPace6.60Cat.MU23
- 180169th M · 106th M23Time15:10:04hPace6.59Cat.M23
- 181170th M · 107th M23Time15:11:38hPace6.58Cat.M23
- 182171st M · 30th M35Time15:11:42hPace6.58Cat.M35
- 183172nd M · 20th M40Time15:11:58hPace6.58Cat.M40
- 184Wolf Gamb Team173rd M · 108th M23Time15:12:08hPace6.58Cat.M23
- 185174th M · 109th M23Time15:12:25hPace6.58Cat.M23
- 186175th M · 8th M45Time15:12:55hPace6.57Cat.M45
- 187Cadence Athletics176th M · 21st M40Time15:13:13hPace6.57Cat.M40
- 188177th M · 110th M23Time15:14:05hPace6.56Cat.M23
- 189178th M · 111th M23Time15:14:16hPace6.56Cat.M23
- 190Run BOB Club179th M · 31st M35Time15:15:41hPace6.55Cat.M35
- 191180th M · 32nd M35Time15:15:58hPace6.55Cat.M35
- 192Av3S181st M · 112th M23Time15:16:29hPace6.55Cat.M23
- 193182nd M · 113th M23Time15:16:34hPace6.55Cat.M23
- 194Team Trail Paris183rd M · 33rd M35Time15:16:47hPace6.54Cat.M35
- 195C.A. Malling184th M · 34th M35Time15:17:17hPace6.54Cat.M35
- 196LE Grand-Bornand185th M · 114th M23Time15:18:34hPace6.53Cat.M23
- 197AC Tassin / Fartleck186th M · 115th M23Time15:19:19hPace6.53Cat.M23
- 198S/L EA Creil187th M · 35th M35Time15:19:33hPace6.53Cat.M35
- 199ARC188th M · 116th M23Time15:19:51hPace6.52Cat.M23
- 200189th M · 117th M23Time15:20:17hPace6.52Cat.M23
Showing ranks 151–200 of 1,052